Time,TemperatureF,DewpointF,PressureIn,WindDirection,WindDirectionDegrees,WindSpeedMPH,WindSpeedGustMPH,Humidity,HourlyPrecipIn,Conditions,Clouds,dailyrainin,SolarRadiationWatts/m^2,SoftwareType,DateUTC
2013-01-18 00:00:00,15.5,10.1,30.77,SSE,154,0.0,5.0,79,0.00,,,0.00,0,Wunderground v.1.15,2013-01-18 07:00:00,
2013-01-18 00:05:00,15.3,10.0,30.77,SSE,154,0.0,5.0,79,0.00,,,0.00,0,Wunderground v.1.15,2013-01-18 07:05:00,
2013-01-18 00:15:00,15.2,10.1,30.77,SSE,154,0.0,0.0,80,0.00,,,0.00,0,Wunderground v.1.15,2013-01-18 07:15:00,
2013-01-18 00:20:00,15.3,10.2,30.77,SSE,154,0.0,0.0,80,0.00,,,0.00,0,Wunderground v.1.15,2013-01-18 07:20:00,
2013-01-18 00:30:00,15.2,10.1,30.77,SSE,154,0.0,0.0,80,0.00,,,0.00,0,Wunderground v.1.15,2013-01-18 07:30:00,
2013-01-18 00:35:00,15.0,9.9,30.77,SSE,155,0.0,0.0,80,0.00,,,0.00,0,Wunderground v.1.15,2013-01-18 07:35:00,
2013-01-18 00:45:00,14.7,9.9,30.77,SSE,154,0.0,0.0,81,0.00,,,0.00,0,Wunderground v.1.15,2013-01-18 07:45:00,
2013-01-18 00:55:00,14.6,9.8,30.77,SSE,154,0.0,0.0,81,0.00,,,0.00,0,Wunderground v.1.15,2013-01-18 07:55:00,
2013-01-18 01:00:00,14.5,9.7,30.77,SSE,154,0.0,0.0,81,0.00,,,0.00,0,Wunderground v.1.15,2013-01-18 08:00:00,
2013-01-18 01:10:00,14.3,9.5,30.78,SSE,154,0.0,1.0,81,0.00,,,0.00,0,Wunderground v.1.15,2013-01-18 08:10:00,
2013-01-18 01:20:00,14.3,9.5,30.78,SSE,154,0.0,1.0,81,0.00,,,0.00,0,Wunderground v.1.15,2013-01-18 08:20:00,
2013-01-18 01:30:00,14.0,9.5,30.78,SSE,154,0.0,1.0,82,0.00,,,0.00,0,Wunderground v.1.15,2013-01-18 08:30:00,
2013-01-18 01:40:00,13.7,9.0,30.79,SSE,154,0.0,1.0,81,0.00,,,0.00,0,Wunderground v.1.15,2013-01-18 08:40:00,
2013-01-18 01:45:00,13.5,8.8,30.79,SSE,154,0.0,1.0,81,0.00,,,0.00,0,Wunderground v.1.15,2013-01-18 08:45:00,
2013-01-18 01:55:00,13.4,8.9,30.79,SSE,154,0.0,1.0,82,0.00,,,0.00,0,Wunderground v.1.15,2013-01-18 08:55:00,
2013-01-18 02:00:00,13.4,8.9,30.79,SSE,154,0.0,1.0,82,0.00,,,0.00,0,Wunderground v.1.15,2013-01-18 09:00:00,
2013-01-18 02:10:00,13.0,8.5,30.79,SSE,154,0.0,1.0,82,0.00,,,0.00,0,Wunderground v.1.15,2013-01-18 09:10:00,
2013-01-18 02:15:00,13.1,8.6,30.79,SSE,154,0.0,1.0,82,0.00,,,0.00,0,Wunderground v.1.15,2013-01-18 09:15:00,
2013-01-18 02:25:00,12.7,8.5,30.79,SSE,154,0.0,1.0,83,0.00,,,0.00,0,Wunderground v.1.15,2013-01-18 09:25:00,
2013-01-18 02:35:00,12.3,7.9,30.79,SSE,154,0.0,1.0,82,0.00,,,0.00,0,Wunderground v.1.15,2013-01-18 09:35:00,
2013-01-18 02:40:00,12.2,7.8,30.79,SSE,154,0.0,1.0,82,0.00,,,0.00,0,Wunderground v.1.15,2013-01-18 09:40:00,
2013-01-18 02:50:00,11.9,7.5,30.79,SSE,154,0.0,1.0,82,0.00,,,0.00,0,Wunderground v.1.15,2013-01-18 09:50:00,
2013-01-18 02:55:00,11.8,7.6,30.79,SSE,154,0.0,1.0,83,0.00,,,0.00,0,Wunderground v.1.15,2013-01-18 09:55:00,
2013-01-18 03:05:00,11.8,7.6,30.79,SSE,154,0.0,1.0,83,0.00,,,0.00,0,Wunderground v.1.15,2013-01-18 10:05:00,
2013-01-18 03:15:00,11.4,7.2,30.79,SSE,154,0.0,1.0,83,0.00,,,0.00,0,Wunderground v.1.15,2013-01-18 10:15:00,
2013-01-18 03:25:00,11.2,7.0,30.78,SSE,155,0.0,0.0,83,0.00,,,0.00,0,Wunderground v.1.15,2013-01-18 10:25:00,
2013-01-18 03:35:00,11.2,7.0,30.78,SSE,154,0.0,0.0,83,0.00,,,0.00,0,Wunderground v.1.15,2013-01-18 10:35:00,
2013-01-18 03:45:00,11.6,7.7,30.78,SSE,154,0.0,1.0,84,0.00,,,0.00,0,Wunderground v.1.15,2013-01-18 10:45:00,
2013-01-18 03:55:00,11.6,7.7,30.78,SW,221,0.0,0.0,84,0.00,,,0.00,0,Wunderground v.1.15,2013-01-18 10:55:00,
2013-01-18 04:05:00,11.4,7.5,30.78,SW,217,0.0,3.0,84,0.00,,,0.00,0,Wunderground v.1.15,2013-01-18 11:05:00,
2013-01-18 04:15:00,10.9,7.0,30.78,South,181,1.0,1.0,84,0.00,,,0.00,0,Wunderground v.1.15,2013-01-18 11:15:00,
2013-01-18 04:20:00,10.6,6.7,30.78,South,181,0.0,0.0,84,0.00,,,0.00,0,Wunderground v.1.15,2013-01-18 11:20:00,
2013-01-18 04:30:00,10.3,6.4,30.78,South,185,0.0,0.0,84,0.00,,,0.00,0,Wunderground v.1.15,2013-01-18 11:30:00,
2013-01-18 04:40:00,10.4,6.5,30.78,SSW,210,1.0,1.0,84,0.00,,,0.00,0,Wunderground v.1.15,2013-01-18 11:40:00,
2013-01-18 04:50:00,10.8,7.2,30.78,South,181,1.0,3.0,85,0.00,,,0.00,0,Wunderground v.1.15,2013-01-18 11:50:00,
2013-01-18 04:55:00,10.9,7.3,30.78,South,184,1.0,3.0,85,0.00,,,0.00,0,Wunderground v.1.15,2013-01-18 11:55:00,
2013-01-18 05:05:00,10.6,7.0,30.78,SSW,209,1.0,1.0,85,0.00,,,0.00,0,Wunderground v.1.15,2013-01-18 12:05:00,
2013-01-18 05:10:00,10.1,6.2,30.78,SSW,197,1.0,1.0,84,0.00,,,0.00,0,Wunderground v.1.15,2013-01-18 12:10:00,
2013-01-18 05:15:00,9.8,5.9,30.78,SSW,206,1.0,1.0,84,0.00,,,0.00,0,Wunderground v.1.15,2013-01-18 12:15:00,
2013-01-18 05:25:00,10.2,6.6,30.78,SE,139,0.0,2.0,85,0.00,,,0.00,0,Wunderground v.1.15,2013-01-18 12:25:00,
2013-01-18 05:35:00,10.5,6.9,30.78,SSE,155,1.0,1.0,85,0.00,,,0.00,0,Wunderground v.1.15,2013-01-18 12:35:00,
2013-01-18 05:40:00,10.6,6.7,30.78,WSW,249,1.0,1.0,84,0.00,,,0.00,0,Wunderground v.1.15,2013-01-18 12:40:00,
2013-01-18 05:50:00,10.0,5.9,30.78,SSE,157,1.0,3.0,83,0.00,,,0.00,0,Wunderground v.1.15,2013-01-18 12:50:00,
2013-01-18 05:55:00,9.3,5.2,30.78,SW,219,1.0,3.0,83,0.00,,,0.00,0,Wunderground v.1.15,2013-01-18 12:55:00,
2013-01-18 06:05:00,9.3,5.4,30.78,SW,231,0.0,0.0,84,0.00,,,0.00,0,Wunderground v.1.15,2013-01-18 13:05:00,
2013-01-18 06:15:00,10.3,6.7,30.78,SW,233,1.0,2.0,85,0.00,,,0.00,0,Wunderground v.1.15,2013-01-18 13:15:00,
2013-01-18 06:20:00,10.1,6.2,30.79,South,191,1.0,3.0,84,0.00,,,0.00,0,Wunderground v.1.15,2013-01-18 13:20:00,
2013-01-18 06:30:00,8.9,5.1,30.79,SSW,212,1.0,1.0,84,0.00,,,0.00,0,Wunderground v.1.15,2013-01-18 13:30:00,
2013-01-18 06:40:00,8.9,5.1,30.79,SE,137,1.0,1.0,84,0.00,,,0.00,0,Wunderground v.1.15,2013-01-18 13:40:00,
2013-01-18 06:50:00,8.6,4.8,30.79,SSE,164,0.0,0.0,84,0.00,,,0.00,0,Wunderground v.1.15,2013-01-18 13:50:00,
2013-01-18 07:00:00,9.1,5.5,30.79,SE,129,0.0,2.0,85,0.00,,,0.00,0,Wunderground v.1.15,2013-01-18 14:00:00,
2013-01-18 07:10:00,8.6,4.8,30.79,SSW,207,1.0,3.0,84,0.00,,,0.00,0,Wunderground v.1.15,2013-01-18 14:10:00,
2013-01-18 07:15:00,8.6,4.8,30.80,SSE,149,1.0,3.0,84,0.00,,,0.00,0,Wunderground v.1.15,2013-01-18 14:15:00,
2013-01-18 07:25:00,8.6,4.8,30.80,South,186,1.0,2.0,84,0.00,,,0.00,0,Wunderground v.1.15,2013-01-18 14:25:00,
2013-01-18 07:30:00,8.4,4.6,30.80,SW,224,1.0,1.0,84,0.00,,,0.00,5,Wunderground v.1.15,2013-01-18 14:30:00,
2013-01-18 07:40:00,8.2,4.4,30.80,SW,222,0.0,2.0,84,0.00,,,0.00,7,Wunderground v.1.15,2013-01-18 14:40:00,
2013-01-18 07:45:00,8.0,4.2,30.80,SW,222,0.0,2.0,84,0.00,,,0.00,9,Wunderground v.1.15,2013-01-18 14:45:00,
2013-01-18 07:55:00,8.0,4.2,30.80,SSE,163,1.0,2.0,84,0.00,,,0.00,12,Wunderground v.1.15,2013-01-18 14:55:00,
2013-01-18 08:00:00,8.2,4.4,30.80,ESE,120,1.0,1.0,84,0.00,,,0.00,12,Wunderground v.1.15,2013-01-18 15:00:00,
2013-01-18 08:10:00,8.4,4.6,30.81,SSE,166,0.0,2.0,84,0.00,,,0.00,14,Wunderground v.1.15,2013-01-18 15:10:00,
2013-01-18 08:15:00,8.6,5.0,30.81,SSW,200,1.0,4.0,85,0.00,,,0.00,16,Wunderground v.1.15,2013-01-18 15:15:00,
2013-01-18 08:25:00,8.5,4.7,30.81,WSW,251,1.0,2.0,84,0.00,,,0.00,18,Wunderground v.1.15,2013-01-18 15:25:00,
2013-01-18 08:35:00,9.2,5.6,30.81,SSE,148,1.0,2.0,85,0.00,,,0.00,19,Wunderground v.1.15,2013-01-18 15:35:00,
2013-01-18 08:45:00,9.7,6.1,30.81,SW,228,2.0,3.0,85,0.00,,,0.00,19,Wunderground v.1.15,2013-01-18 15:45:00,
2013-01-18 08:50:00,10.0,6.4,30.81,SSW,195,2.0,2.0,85,0.00,,,0.00,21,Wunderground v.1.15,2013-01-18 15:50:00,
2013-01-18 08:55:00,9.8,5.9,30.81,South,186,2.0,2.0,84,0.00,,,0.00,21,Wunderground v.1.15,2013-01-18 15:55:00,
2013-01-18 09:10:00,10.3,6.4,30.81,SE,139,2.0,4.0,84,0.00,,,0.00,26,Wunderground v.1.15,2013-01-18 16:10:00,
2013-01-18 09:20:00,12.6,8.1,30.81,SE,133,4.0,4.0,82,0.00,,,0.00,269,Wunderground v.1.15,2013-01-18 16:20:00,
2013-01-18 09:25:00,13.3,8.3,30.81,SE,133,4.0,4.0,80,0.00,,,0.00,290,Wunderground v.1.15,2013-01-18 16:25:00,
2013-01-18 09:30:00,15.4,10.3,30.81,ENE,68,4.0,5.0,80,0.00,,,0.00,302,Wunderground v.1.15,2013-01-18 16:30:00,
2013-01-18 09:35:00,14.5,8.3,30.81,East,100,5.0,7.0,76,0.00,,,0.00,322,Wunderground v.1.15,2013-01-18 16:35:00,
2013-01-18 09:45:00,17.5,11.8,30.81,NE,54,7.0,9.0,78,0.00,,,0.00,343,Wunderground v.1.15,2013-01-18 16:45:00,
2013-01-18 09:50:00,18.0,12.3,30.80,East,81,8.0,9.0,78,0.00,,,0.00,348,Wunderground v.1.15,2013-01-18 16:50:00,
2013-01-18 09:55:00,18.2,12.5,30.80,ESE,113,8.0,9.0,78,0.00,,,0.00,341,Wunderground v.1.15,2013-01-18 16:55:00,
2013-01-18 10:05:00,17.4,10.5,30.80,ENE,63,7.0,9.0,74,0.00,,,0.00,313,Wunderground v.1.15,2013-01-18 17:05:00,
2013-01-18 10:15:00,19.4,11.5,30.79,ENE,58,8.0,11.0,71,0.00,,,0.00,385,Wunderground v.1.15,2013-01-18 17:15:00,
2013-01-18 10:25:00,19.9,12.9,30.78,NE,56,7.0,10.0,74,0.00,,,0.00,404,Wunderground v.1.15,2013-01-18 17:25:00,
2013-01-18 10:35:00,20.5,12.9,30.77,ENE,66,10.0,10.0,72,0.00,,,0.00,418,Wunderground v.1.15,2013-01-18 17:35:00,
2013-01-18 10:40:00,21.1,13.8,30.77,ENE,63,10.0,10.0,73,0.00,,,0.00,429,Wunderground v.1.15,2013-01-18 17:40:00,
2013-01-18 10:45:00,21.2,13.6,30.76,ENE,75,8.0,10.0,72,0.00,,,0.00,436,Wunderground v.1.15,2013-01-18 17:45:00,
2013-01-18 10:55:00,22.1,12.8,30.76,ENE,57,9.0,11.0,67,0.00,,,0.00,452,Wunderground v.1.15,2013-01-18 17:55:00,
2013-01-18 11:00:00,22.4,12.8,30.75,NE,42,9.0,9.0,66,0.00,,,0.00,459,Wunderground v.1.15,2013-01-18 18:00:00,
2013-01-18 11:05:00,22.6,12.6,30.75,NE,41,9.0,9.0,65,0.00,,,0.00,466,Wunderground v.1.15,2013-01-18 18:05:00,
2013-01-18 11:15:00,23.4,13.7,30.74,NE,37,9.0,9.0,66,0.00,,,0.00,478,Wunderground v.1.15,2013-01-18 18:15:00,
2013-01-18 11:20:00,24.5,14.8,30.73,ENE,70,8.0,9.0,66,0.00,,,0.00,483,Wunderground v.1.15,2013-01-18 18:20:00,
2013-01-18 11:30:00,24.7,12.8,30.72,NE,55,8.0,9.0,60,0.00,,,0.00,492,Wunderground v.1.15,2013-01-18 18:30:00,
2013-01-18 11:35:00,26.0,14.8,30.72,NE,35,8.0,9.0,62,0.00,,,0.00,497,Wunderground v.1.15,2013-01-18 18:35:00,
2013-01-18 11:45:00,26.0,14.0,30.71,NE,34,8.0,9.0,60,0.00,,,0.00,504,Wunderground v.1.15,2013-01-18 18:45:00,
2013-01-18 11:50:00,26.6,14.6,30.70,NE,50,8.0,8.0,60,0.00,,,0.00,508,Wunderground v.1.15,2013-01-18 18:50:00,
2013-01-18 12:00:00,27.4,15.3,30.69,ENE,65,8.0,8.0,60,0.00,,,0.00,513,Wunderground v.1.15,2013-01-18 19:00:00,
2013-01-18 12:05:00,28.1,16.0,30.69,NE,52,7.0,9.0,60,0.00,,,0.00,515,Wunderground v.1.15,2013-01-18 19:05:00,
2013-01-18 12:15:00,28.4,15.5,30.68,ENE,73,7.0,10.0,58,0.00,,,0.00,519,Wunderground v.1.15,2013-01-18 19:15:00,
2013-01-18 12:25:00,28.6,15.3,30.67,NE,52,9.0,9.0,57,0.00,,,0.00,520,Wunderground v.1.15,2013-01-18 19:25:00,
2013-01-18 12:35:00,29.6,16.2,30.65,ENE,57,9.0,11.0,57,0.00,,,0.00,519,Wunderground v.1.15,2013-01-18 19:35:00,
2013-01-18 12:45:00,29.9,16.5,30.65,NE,56,10.0,10.0,57,0.00,,,0.00,517,Wunderground v.1.15,2013-01-18 19:45:00,
2013-01-18 12:50:00,30.5,16.2,30.65,NE,45,10.0,10.0,55,0.00,,,0.00,517,Wunderground v.1.15,2013-01-18 19:50:00,
2013-01-18 13:00:00,31.2,16.5,30.64,NE,40,9.0,9.0,54,0.00,,,0.00,512,Wunderground v.1.15,2013-01-18 20:00:00,
2013-01-18 13:05:00,31.4,16.7,30.64,NE,47,9.0,11.0,54,0.00,,,0.00,510,Wunderground v.1.15,2013-01-18 20:05:00,
2013-01-18 13:10:00,31.9,16.2,30.64,NE,55,9.0,11.0,52,0.00,,,0.00,506,Wunderground v.1.15,2013-01-18 20:10:00,
2013-01-18 13:20:00,32.7,17.4,30.63,NE,38,9.0,9.0,53,0.00,,,0.00,499,Wunderground v.1.15,2013-01-18 20:20:00,
2013-01-18 13:30:00,32.8,17.1,30.62,ENE,60,9.0,11.0,52,0.00,,,0.00,490,Wunderground v.1.15,2013-01-18 20:30:00,
2013-01-18 13:40:00,34.0,18.6,30.62,NE,48,8.0,8.0,53,0.00,,,0.00,480,Wunderground v.1.15,2013-01-18 20:40:00,
2013-01-18 13:50:00,34.5,18.2,30.61,ENE,60,7.0,11.0,51,0.00,,,0.00,468,Wunderground v.1.15,2013-01-18 20:50:00,
2013-01-18 14:00:00,34.6,17.8,30.61,NE,55,7.0,11.0,50,0.00,,,0.00,454,Wunderground v.1.15,2013-01-18 21:00:00,
2013-01-18 14:05:00,34.8,17.6,30.61,ENE,58,8.0,11.0,49,0.00,,,0.00,446,Wunderground v.1.15,2013-01-18 21:05:00,
2013-01-18 14:15:00,34.8,18.0,30.60,NE,56,8.0,11.0,50,0.00,,,0.00,432,Wunderground v.1.15,2013-01-18 21:15:00,
2013-01-18 14:25:00,35.4,18.1,30.60,ENE,67,8.0,11.0,49,0.00,,,0.00,415,Wunderground v.1.15,2013-01-18 21:25:00,
2013-01-18 14:35:00,36.1,18.8,30.59,ENE,57,7.0,11.0,49,0.00,,,0.00,397,Wunderground v.1.15,2013-01-18 21:35:00,
2013-01-18 14:45:00,36.4,19.0,30.59,NE,49,7.0,11.0,49,0.00,,,0.00,380,Wunderground v.1.15,2013-01-18 21:45:00,
2013-01-18 14:50:00,36.7,18.8,30.59,NE,48,6.0,11.0,48,0.00,,,0.00,369,Wunderground v.1.15,2013-01-18 21:50:00,
2013-01-18 15:00:00,36.4,18.6,30.59,NE,52,7.0,7.0,48,0.00,,,0.00,348,Wunderground v.1.15,2013-01-18 22:00:00,
2013-01-18 15:05:00,36.6,18.2,30.59,ENE,59,6.0,7.0,47,0.00,,,0.00,338,Wunderground v.1.15,2013-01-18 22:05:00,
2013-01-18 15:15:00,36.7,18.3,30.59,East,81,7.0,7.0,47,0.00,,,0.00,315,Wunderground v.1.15,2013-01-18 22:15:00,
2013-01-18 15:25:00,36.9,19.5,30.58,ENE,63,6.0,9.0,49,0.00,,,0.00,290,Wunderground v.1.15,2013-01-18 22:25:00,
2013-01-18 15:35:00,36.7,20.3,30.58,ENE,62,7.0,9.0,51,0.00,,,0.00,258,Wunderground v.1.15,2013-01-18 22:35:00,
2013-01-18 15:40:00,36.8,20.8,30.58,ENE,66,7.0,7.0,52,0.00,,,0.00,243,Wunderground v.1.15,2013-01-18 22:40:00,
2013-01-18 15:50:00,36.3,18.9,30.58,NE,41,8.0,8.0,49,0.00,,,0.00,207,Wunderground v.1.15,2013-01-18 22:50:00,
2013-01-18 16:00:00,36.3,20.3,30.58,ENE,65,7.0,7.0,52,0.00,,,0.00,23,Wunderground v.1.15,2013-01-18 23:00:00,
2013-01-18 16:10:00,35.6,19.2,30.58,ENE,63,5.0,9.0,51,0.00,,,0.00,19,Wunderground v.1.15,2013-01-18 23:10:00,
2013-01-18 16:20:00,34.7,20.6,30.58,NE,46,6.0,9.0,56,0.00,,,0.00,18,Wunderground v.1.15,2013-01-18 23:20:00,
2013-01-18 16:30:00,33.6,19.1,30.58,ENE,63,6.0,9.0,55,0.00,,,0.00,16,Wunderground v.1.15,2013-01-18 23:30:00,
2013-01-18 16:40:00,32.6,18.6,30.59,NE,48,6.0,9.0,56,0.00,,,0.00,14,Wunderground v.1.15,2013-01-18 23:40:00,
2013-01-18 16:45:00,32.5,19.3,30.59,NNE,33,7.0,9.0,58,0.00,,,0.00,12,Wunderground v.1.15,2013-01-18 23:45:00,
2013-01-18 16:55:00,32.0,18.1,30.59,NNE,29,6.0,8.0,56,0.00,,,0.00,11,Wunderground v.1.15,2013-01-18 23:55:00,
2013-01-18 17:05:00,31.8,18.3,30.59,ENE,61,6.0,9.0,57,0.00,,,0.00,7,Wunderground v.1.15,2013-01-19 00:05:00,
2013-01-18 17:10:00,31.4,17.9,30.59,NE,50,6.0,6.0,57,0.00,,,0.00,5,Wunderground v.1.15,2013-01-19 00:10:00,
2013-01-18 17:15:00,31.3,18.2,30.59,ENE,60,5.0,9.0,58,0.00,,,0.00,0,Wunderground v.1.15,2013-01-19 00:15:00,
2013-01-18 17:25:00,31.5,18.8,30.60,NE,54,3.0,9.0,59,0.00,,,0.00,0,Wunderground v.1.15,2013-01-19 00:25:00,
2013-01-18 17:35:00,31.0,19.5,30.60,ENE,60,2.0,9.0,62,0.00,,,0.00,0,Wunderground v.1.15,2013-01-19 00:35:00,
2013-01-18 17:45:00,30.3,19.2,30.61,ENE,67,3.0,9.0,63,0.00,,,0.00,0,Wunderground v.1.15,2013-01-19 00:45:00,
2013-01-18 17:50:00,30.2,19.5,30.61,NNW,333,3.0,3.0,64,0.00,,,0.00,0,Wunderground v.1.15,2013-01-19 00:50:00,
2013-01-18 18:00:00,30.0,19.7,30.61,ENE,64,2.0,2.0,65,0.00,,,0.00,0,Wunderground v.1.15,2013-01-19 01:00:00,
2013-01-18 18:05:00,29.8,19.5,30.61,ENE,77,2.0,2.0,65,0.00,,,0.00,0,Wunderground v.1.15,2013-01-19 01:05:00,
2013-01-18 18:15:00,29.2,18.9,30.62,ENE,62,2.0,3.0,65,0.00,,,0.00,0,Wunderground v.1.15,2013-01-19 01:15:00,
2013-01-18 18:25:00,28.7,19.1,30.62,NE,50,3.0,6.0,67,0.00,,,0.00,0,Wunderground v.1.15,2013-01-19 01:25:00,
2013-01-18 18:35:00,28.4,19.2,30.63,ENE,69,2.0,4.0,68,0.00,,,0.00,0,Wunderground v.1.15,2013-01-19 01:35:00,
2013-01-18 18:40:00,28.3,19.4,30.63,ENE,64,2.0,2.0,69,0.00,,,0.00,0,Wunderground v.1.15,2013-01-19 01:40:00,
2013-01-18 18:50:00,27.8,18.9,30.63,ENE,68,2.0,2.0,69,0.00,,,0.00,0,Wunderground v.1.15,2013-01-19 01:50:00,
2013-01-18 19:00:00,27.4,18.6,30.63,ENE,68,0.0,0.0,69,0.00,,,0.00,0,Wunderground v.1.15,2013-01-19 02:00:00,
2013-01-18 19:05:00,27.5,19.3,30.63,ENE,68,1.0,1.0,71,0.00,,,0.00,0,Wunderground v.1.15,2013-01-19 02:05:00,
2013-01-18 19:15:00,26.9,19.1,30.63,ENE,76,2.0,4.0,72,0.00,,,0.00,0,Wunderground v.1.15,2013-01-19 02:15:00,
2013-01-18 19:25:00,26.1,18.3,30.64,ENE,76,1.0,2.0,72,0.00,,,0.00,0,Wunderground v.1.15,2013-01-19 02:25:00,
2013-01-18 19:35:00,25.1,17.3,30.63,ENE,67,2.0,5.0,72,0.00,,,0.00,0,Wunderground v.1.15,2013-01-19 02:35:00,
2013-01-18 19:40:00,25.3,18.5,30.63,ENE,76,2.0,5.0,75,0.00,,,0.00,0,Wunderground v.1.15,2013-01-19 02:40:00,
2013-01-18 19:50:00,25.3,19.1,30.64,ENE,76,1.0,5.0,77,0.00,,,0.00,0,Wunderground v.1.15,2013-01-19 02:50:00,
2013-01-18 20:00:00,24.4,17.6,30.64,ENE,75,0.0,5.0,75,0.00,,,0.00,0,Wunderground v.1.15,2013-01-19 03:00:00,
2013-01-18 20:10:00,24.1,17.3,30.63,ENE,70,1.0,1.0,75,0.00,,,0.00,0,Wunderground v.1.15,2013-01-19 03:10:00,
2013-01-18 20:20:00,23.8,17.0,30.64,ENE,70,0.0,5.0,75,0.00,,,0.00,0,Wunderground v.1.15,2013-01-19 03:20:00,
2013-01-18 20:25:00,23.8,17.3,30.64,ENE,70,0.0,5.0,76,0.00,,,0.00,0,Wunderground v.1.15,2013-01-19 03:25:00,
2013-01-18 20:35:00,23.2,16.4,30.64,ENE,70,0.0,5.0,75,0.00,,,0.00,0,Wunderground v.1.15,2013-01-19 03:35:00,
2013-01-18 20:45:00,23.1,17.0,30.64,ENE,70,0.0,5.0,77,0.00,,,0.00,0,Wunderground v.1.15,2013-01-19 03:45:00,
2013-01-18 20:55:00,22.7,16.3,30.65,ENE,70,0.0,5.0,76,0.00,,,0.00,0,Wunderground v.1.15,2013-01-19 03:55:00,
2013-01-18 21:05:00,22.2,15.8,30.65,ENE,70,0.0,1.0,76,0.00,,,0.00,0,Wunderground v.1.15,2013-01-19 04:05:00,
2013-01-18 21:15:00,22.1,15.7,30.65,ENE,70,0.0,0.0,76,0.00,,,0.00,0,Wunderground v.1.15,2013-01-19 04:15:00,
2013-01-18 21:25:00,21.7,15.3,30.65,ENE,70,0.0,0.0,76,0.00,,,0.00,0,Wunderground v.1.15,2013-01-19 04:25:00,
2013-01-18 21:30:00,21.6,15.2,30.65,ENE,70,0.0,0.0,76,0.00,,,0.00,0,Wunderground v.1.15,2013-01-19 04:30:00,
2013-01-18 21:40:00,21.5,15.4,30.65,ENE,70,0.0,0.0,77,0.00,,,0.00,0,Wunderground v.1.15,2013-01-19 04:40:00,
2013-01-18 21:45:00,21.2,14.8,30.65,ENE,70,0.0,0.0,76,0.00,,,0.00,0,Wunderground v.1.15,2013-01-19 04:45:00,
2013-01-18 21:55:00,20.9,14.8,30.65,ENE,70,0.0,0.0,77,0.00,,,0.00,0,Wunderground v.1.15,2013-01-19 04:55:00,
2013-01-18 22:05:00,20.4,14.3,30.66,ENE,70,0.0,3.0,77,0.00,,,0.00,0,Wunderground v.1.15,2013-01-19 05:05:00,
2013-01-18 22:10:00,20.1,14.0,30.66,ENE,70,0.0,3.0,77,0.00,,,0.00,0,Wunderground v.1.15,2013-01-19 05:10:00,
2013-01-18 22:15:00,20.1,14.0,30.66,ENE,70,0.0,3.0,77,0.00,,,0.00,0,Wunderground v.1.15,2013-01-19 05:15:00,
2013-01-18 22:25:00,19.8,13.8,30.66,ENE,70,0.0,3.0,77,0.00,,,0.00,0,Wunderground v.1.15,2013-01-19 05:25:00,
2013-01-18 22:35:00,19.4,13.4,30.66,ENE,70,0.0,3.0,77,0.00,,,0.00,0,Wunderground v.1.15,2013-01-19 05:35:00,
2013-01-18 22:40:00,19.3,13.3,30.66,ENE,70,0.0,3.0,77,0.00,,,0.00,0,Wunderground v.1.15,2013-01-19 05:40:00,
2013-01-18 22:50:00,19.0,13.3,30.67,ENE,70,0.0,3.0,78,0.00,,,0.00,0,Wunderground v.1.15,2013-01-19 05:50:00,
2013-01-18 23:00:00,18.7,13.3,30.66,ENE,70,0.0,3.0,79,0.00,,,0.00,0,Wunderground v.1.15,2013-01-19 06:00:00,
2013-01-18 23:05:00,18.5,13.1,30.67,ENE,70,0.0,3.0,79,0.00,,,0.00,0,Wunderground v.1.15,2013-01-19 06:05:00,
2013-01-18 23:10:00,18.3,13.2,30.66,ENE,70,0.0,3.0,80,0.00,,,0.00,0,Wunderground v.1.15,2013-01-19 06:10:00,
2013-01-18 23:20:00,18.0,12.9,30.66,ENE,70,0.0,3.0,80,0.00,,,0.00,0,Wunderground v.1.15,2013-01-19 06:20:00,
2013-01-18 23:30:00,17.7,12.6,30.66,ENE,70,0.0,3.0,80,0.00,,,0.00,0,Wunderground v.1.15,2013-01-19 06:30:00,
2013-01-18 23:40:00,17.5,12.4,30.66,ENE,70,0.0,3.0,80,0.00,,,0.00,0,Wunderground v.1.15,2013-01-19 06:40:00,
2013-01-18 23:50:00,17.2,12.1,30.67,ENE,70,0.0,3.0,80,0.00,,,0.00,0,Wunderground v.1.15,2013-01-19 06:50:00,
2013-01-18 23:55:00,17.1,12.0,30.67,ENE,70,0.0,3.0,80,0.00,,,0.00,0,Wunderground v.1.15,2013-01-19 06:55:00,